sensor_id;sensor_type;location;lat;lon;timestamp;pressure;altitude;pressure_sealevel;temperature;humidity
21826;BME280;11075;47.944;11.776;2022-12-07T00:01:26;94603.63;;;9.01;24.71
21826;BME280;11075;47.944;11.776;2022-12-07T00:03:55;94607.00;;;8.69;24.95
21826;BME280;11075;47.944;11.776;2022-12-07T00:06:27;94598.69;;;9.24;24.67
21826;BME280;11075;47.944;11.776;2022-12-07T00:08:54;94599.09;;;6.94;26.88
21826;BME280;11075;47.944;11.776;2022-12-07T00:11:22;94593.38;;;8.74;25.11
21826;BME280;11075;47.944;11.776;2022-12-07T00:13:54;94567.84;;;6.12;28.23
21826;BME280;11075;47.944;11.776;2022-12-07T00:16:23;94604.97;;;9.61;24.09
21826;BME280;11075;47.944;11.776;2022-12-07T00:18:50;94605.44;;;9.63;24.02
21826;BME280;11075;47.944;11.776;2022-12-07T00:21:25;94589.22;;;7.67;26.36
21826;BME280;11075;47.944;11.776;2022-12-07T00:23:53;94596.38;;;7.92;25.63
21826;BME280;11075;47.944;11.776;2022-12-07T00:26:24;94578.88;;;7.86;26.49
21826;BME280;11075;47.944;11.776;2022-12-07T00:28:57;94575.69;;;7.55;26.84
21826;BME280;11075;47.944;11.776;2022-12-07T00:31:29;94563.66;;;5.49;28.67
21826;BME280;11075;47.944;11.776;2022-12-07T00:33:57;94578.97;;;7.99;25.65
21826;BME280;11075;47.944;11.776;2022-12-07T00:36:25;94586.03;;;8.41;25.43
21826;BME280;11075;47.944;11.776;2022-12-07T00:38:58;94576.88;;;9.05;24.91
21826;BME280;11075;47.944;11.776;2022-12-07T00:41:27;94586.81;;;9.25;24.32
21826;BME280;11075;47.944;11.776;2022-12-07T00:43:54;94570.25;;;7.17;27.02
21826;BME280;11075;47.944;11.776;2022-12-07T00:46:22;94580.41;;;8.34;25.69
21826;BME280;11075;47.944;11.776;2022-12-07T00:48:51;94579.09;;;8.11;25.87
21826;BME280;11075;47.944;11.776;2022-12-07T00:51:20;94557.00;;;6.34;27.86
21826;BME280;11075;47.944;11.776;2022-12-07T00:53:47;94570.56;;;7.15;26.67
21826;BME280;11075;47.944;11.776;2022-12-07T00:56:28;94582.63;;;8.03;25.67
21826;BME280;11075;47.944;11.776;2022-12-07T00:59:03;94580.03;;;8.65;25.35
21826;BME280;11075;47.944;11.776;2022-12-07T01:01:34;94584.97;;;8.84;25.30
21826;BME280;11075;47.944;11.776;2022-12-07T01:04:01;94588.06;;;9.28;24.70
21826;BME280;11075;47.944;11.776;2022-12-07T01:06:29;94591.75;;;9.02;24.54
21826;BME280;11075;47.944;11.776;2022-12-07T01:08:57;94570.78;;;6.02;27.86
21826;BME280;11075;47.944;11.776;2022-12-07T01:11:27;94578.47;;;7.67;25.89
21826;BME280;11075;47.944;11.776;2022-12-07T01:13:56;94581.97;;;8.77;24.90
21826;BME280;11075;47.944;11.776;2022-12-07T01:16:24;94591.59;;;9.52;24.31
21826;BME280;11075;47.944;11.776;2022-12-07T01:18:54;94594.91;;;9.82;23.96
21826;BME280;11075;47.944;11.776;2022-12-07T01:21:23;94602.03;;;10.36;23.32
21826;BME280;11075;47.944;11.776;2022-12-07T01:23:51;94600.28;;;8.04;25.56
21826;BME280;11075;47.944;11.776;2022-12-07T01:26:20;94602.44;;;9.77;23.48
21826;BME280;11075;47.944;11.776;2022-12-07T01:28:48;94600.31;;;9.16;24.73
21826;BME280;11075;47.944;11.776;2022-12-07T01:31:18;94600.84;;;9.76;23.47
21826;BME280;11075;47.944;11.776;2022-12-07T01:33:47;94609.94;;;9.71;24.03
21826;BME280;11075;47.944;11.776;2022-12-07T01:36:33;94604.22;;;9.40;24.13
21826;BME280;11075;47.944;11.776;2022-12-07T01:39:04;94595.13;;;9.65;23.54
21826;BME280;11075;47.944;11.776;2022-12-07T01:41:34;94582.88;;;6.90;26.63
21826;BME280;11075;47.944;11.776;2022-12-07T01:44:21;94596.97;;;9.19;24.54
21826;BME280;11075;47.944;11.776;2022-12-07T01:47:00;94598.63;;;9.90;23.91
21826;BME280;11075;47.944;11.776;2022-12-07T01:52:02;94599.53;;;10.06;23.50
21826;BME280;11075;47.944;11.776;2022-12-07T01:54:31;94578.38;;;7.55;26.21
21826;BME280;11075;47.944;11.776;2022-12-07T01:57:00;94597.69;;;9.29;23.83
21826;BME280;11075;47.944;11.776;2022-12-07T01:59:28;94591.31;;;8.29;25.29
21826;BME280;11075;47.944;11.776;2022-12-07T02:01:55;94589.97;;;9.72;23.75
21826;BME280;11075;47.944;11.776;2022-12-07T02:04:23;94587.16;;;8.61;25.00
21826;BME280;11075;47.944;11.776;2022-12-07T02:06:51;94593.38;;;9.15;24.28
21826;BME280;11075;47.944;11.776;2022-12-07T02:09:18;94591.22;;;9.42;23.84
21826;BME280;11075;47.944;11.776;2022-12-07T02:11:45;94600.25;;;9.25;23.95
21826;BME280;11075;47.944;11.776;2022-12-07T02:14:12;94594.94;;;9.16;24.26
21826;BME280;11075;47.944;11.776;2022-12-07T02:22:45;94591.47;;;8.53;24.62
21826;BME280;11075;47.944;11.776;2022-12-07T02:28:13;94592.88;;;9.34;23.69
21826;BME280;11075;47.944;11.776;2022-12-07T02:30:48;94593.72;;;9.14;24.20
21826;BME280;11075;47.944;11.776;2022-12-07T02:33:21;94571.69;;;6.97;26.52
21826;BME280;11075;47.944;11.776;2022-12-07T02:36:00;94580.81;;;9.07;24.38
21826;BME280;11075;47.944;11.776;2022-12-07T02:38:44;94570.25;;;8.61;24.91
21826;BME280;11075;47.944;11.776;2022-12-07T02:41:26;94565.91;;;7.59;26.27
21826;BME280;11075;47.944;11.776;2022-12-07T02:43:58;94538.72;;;5.53;28.69
21826;BME280;11075;47.944;11.776;2022-12-07T02:46:49;94557.69;;;7.93;25.69
21826;BME280;11075;47.944;11.776;2022-12-07T02:49:18;94564.50;;;8.50;25.10
21826;BME280;11075;47.944;11.776;2022-12-07T02:51:46;94560.53;;;7.59;25.86
21826;BME280;11075;47.944;11.776;2022-12-07T02:54:18;94564.31;;;7.96;25.49
21826;BME280;11075;47.944;11.776;2022-12-07T03:02:55;94578.06;;;9.61;23.75
21826;BME280;11075;47.944;11.776;2022-12-07T03:21:32;94578.66;;;8.80;24.26
21826;BME280;11075;47.944;11.776;2022-12-07T03:24:03;94578.66;;;9.91;23.08
21826;BME280;11075;47.944;11.776;2022-12-07T03:26:38;94590.16;;;9.55;23.65
21826;BME280;11075;47.944;11.776;2022-12-07T03:29:12;94589.00;;;9.44;23.68
21826;BME280;11075;47.944;11.776;2022-12-07T03:31:41;94570.38;;;9.06;24.12
21826;BME280;11075;47.944;11.776;2022-12-07T03:34:19;94583.47;;;9.61;23.29
21826;BME280;11075;47.944;11.776;2022-12-07T03:37:15;94581.59;;;9.08;24.13
21826;BME280;11075;47.944;11.776;2022-12-07T03:42:33;94567.94;;;9.13;24.16
21826;BME280;11075;47.944;11.776;2022-12-07T03:45:02;94566.19;;;8.54;24.60
21826;BME280;11075;47.944;11.776;2022-12-07T03:47:49;94572.94;;;10.05;23.06
21826;BME280;11075;47.944;11.776;2022-12-07T03:50:42;94570.00;;;9.28;23.51
21826;BME280;11075;47.944;11.776;2022-12-07T03:53:15;94552.16;;;8.28;25.11
21826;BME280;11075;47.944;11.776;2022-12-07T03:55:46;94548.38;;;6.72;26.49
21826;BME280;11075;47.944;11.776;2022-12-07T03:58:18;94550.59;;;8.69;24.54
21826;BME280;11075;47.944;11.776;2022-12-07T04:00:46;94551.44;;;9.02;24.20
21826;BME280;11075;47.944;11.776;2022-12-07T04:03:13;94564.22;;;9.96;23.31
21826;BME280;11075;47.944;11.776;2022-12-07T04:05:40;94569.13;;;10.06;22.60
21826;BME280;11075;47.944;11.776;2022-12-07T04:08:07;94565.44;;;9.98;22.87
21826;BME280;11075;47.944;11.776;2022-12-07T04:10:34;94567.56;;;10.17;22.66
21826;BME280;11075;47.944;11.776;2022-12-07T04:13:01;94562.78;;;9.53;23.82
21826;BME280;11075;47.944;11.776;2022-12-07T04:15:28;94564.53;;;9.70;23.46
21826;BME280;11075;47.944;11.776;2022-12-07T04:17:55;94559.06;;;9.91;23.05
21826;BME280;11075;47.944;11.776;2022-12-07T04:20:22;94573.41;;;9.95;23.09
21826;BME280;11075;47.944;11.776;2022-12-07T04:22:48;94569.81;;;9.78;23.11
21826;BME280;11075;47.944;11.776;2022-12-07T04:25:16;94571.75;;;10.27;22.47
21826;BME280;11075;47.944;11.776;2022-12-07T04:27:43;94564.69;;;9.07;23.80
21826;BME280;11075;47.944;11.776;2022-12-07T04:30:10;94562.44;;;9.09;23.90
21826;BME280;11075;47.944;11.776;2022-12-07T04:32:37;94548.97;;;8.97;24.28
21826;BME280;11075;47.944;11.776;2022-12-07T04:35:03;94561.28;;;9.64;23.23
21826;BME280;11075;47.944;11.776;2022-12-07T04:37:31;94559.97;;;9.04;23.74
21826;BME280;11075;47.944;11.776;2022-12-07T04:39:58;94567.19;;;8.71;24.27
21826;BME280;11075;47.944;11.776;2022-12-07T04:42:26;94564.84;;;9.68;23.03
21826;BME280;11075;47.944;11.776;2022-12-07T04:44:53;94571.16;;;9.97;23.06
21826;BME280;11075;47.944;11.776;2022-12-07T04:47:20;94561.84;;;10.06;23.19
21826;BME280;11075;47.944;11.776;2022-12-07T04:49:47;94569.78;;;9.66;23.61
21826;BME280;11075;47.944;11.776;2022-12-07T04:52:13;94572.63;;;10.19;22.60
21826;BME280;11075;47.944;11.776;2022-12-07T04:54:40;94560.59;;;9.67;23.29
21826;BME280;11075;47.944;11.776;2022-12-07T04:57:07;94563.28;;;9.67;23.54
21826;BME280;11075;47.944;11.776;2022-12-07T04:59:34;94556.09;;;9.14;24.24
21826;BME280;11075;47.944;11.776;2022-12-07T05:02:07;94569.69;;;9.87;23.17
21826;BME280;11075;47.944;11.776;2022-12-07T05:04:35;94569.13;;;10.18;22.80
21826;BME280;11075;47.944;11.776;2022-12-07T05:07:02;94560.38;;;9.60;23.26
21826;BME280;11075;47.944;11.776;2022-12-07T05:09:28;94562.16;;;9.68;23.37
21826;BME280;11075;47.944;11.776;2022-12-07T05:11:55;94566.19;;;9.62;23.07
21826;BME280;11075;47.944;11.776;2022-12-07T05:14:22;94563.41;;;9.26;23.75
21826;BME280;11075;47.944;11.776;2022-12-07T05:16:50;94563.66;;;9.45;23.63
21826;BME280;11075;47.944;11.776;2022-12-07T05:19:18;94553.75;;;8.92;24.35
21826;BME280;11075;47.944;11.776;2022-12-07T05:21:46;94557.47;;;8.37;24.79
21826;BME280;11075;47.944;11.776;2022-12-07T05:24:14;94549.81;;;8.47;24.85
21826;BME280;11075;47.944;11.776;2022-12-07T05:26:41;94547.53;;;8.58;24.96
21826;BME280;11075;47.944;11.776;2022-12-07T05:29:11;94551.53;;;8.94;24.66
21826;BME280;11075;47.944;11.776;2022-12-07T05:31:38;94541.38;;;8.78;24.69
21826;BME280;11075;47.944;11.776;2022-12-07T05:34:05;94546.38;;;8.88;24.73
21826;BME280;11075;47.944;11.776;2022-12-07T05:36:32;94544.66;;;8.42;24.96
21826;BME280;11075;47.944;11.776;2022-12-07T05:38:59;94545.63;;;8.59;24.97
21826;BME280;11075;47.944;11.776;2022-12-07T05:41:26;94545.19;;;8.56;24.95
21826;BME280;11075;47.944;11.776;2022-12-07T05:44:11;94541.13;;;7.62;26.33
21826;BME280;11075;47.944;11.776;2022-12-07T05:46:38;94543.38;;;7.89;25.87
21826;BME280;11075;47.944;11.776;2022-12-07T05:49:05;94550.50;;;7.39;25.89
21826;BME280;11075;47.944;11.776;2022-12-07T05:51:32;94532.50;;;7.86;25.91
21826;BME280;11075;47.944;11.776;2022-12-07T05:53:59;94531.44;;;7.78;26.19
21826;BME280;11075;47.944;11.776;2022-12-07T05:56:26;94524.06;;;7.11;26.81
21826;BME280;11075;47.944;11.776;2022-12-07T05:58:54;94522.81;;;5.96;27.91
21826;BME280;11075;47.944;11.776;2022-12-07T06:01:39;94518.97;;;5.41;28.48
21826;BME280;11075;47.944;11.776;2022-12-07T06:04:07;94527.31;;;7.43;26.11
21826;BME280;11075;47.944;11.776;2022-12-07T06:06:34;94512.81;;;5.31;28.49
21826;BME280;11075;47.944;11.776;2022-12-07T06:09:02;94523.63;;;5.57;27.91
21826;BME280;11075;47.944;11.776;2022-12-07T06:11:29;94531.63;;;7.09;26.46
21826;BME280;11075;47.944;11.776;2022-12-07T06:14:15;94538.00;;;6.79;26.88
21826;BME280;11075;47.944;11.776;2022-12-07T06:16:41;94538.47;;;5.41;27.81
21826;BME280;11075;47.944;11.776;2022-12-07T06:19:08;94514.66;;;4.69;29.32
21826;BME280;11075;47.944;11.776;2022-12-07T06:21:36;94542.78;;;7.37;25.92
21826;BME280;11075;47.944;11.776;2022-12-07T06:24:03;94521.97;;;3.64;30.18
21826;BME280;11075;47.944;11.776;2022-12-07T06:26:29;94508.06;;;3.12;31.59
21826;BME280;11075;47.944;11.776;2022-12-07T06:28:56;94531.69;;;6.40;26.86
21826;BME280;11075;47.944;11.776;2022-12-07T06:31:23;94547.88;;;7.04;26.40
21826;BME280;11075;47.944;11.776;2022-12-07T06:33:49;94554.88;;;7.52;25.27
21826;BME280;11075;47.944;11.776;2022-12-07T06:36:17;94542.53;;;5.70;27.33
21826;BME280;11075;47.944;11.776;2022-12-07T06:38:52;94554.81;;;7.14;25.78
21826;BME280;11075;47.944;11.776;2022-12-07T06:41:19;94544.94;;;6.54;26.79
21826;BME280;11075;47.944;11.776;2022-12-07T06:43:48;94549.56;;;7.35;26.08
21826;BME280;11075;47.944;11.776;2022-12-07T06:46:21;94550.28;;;6.80;26.32
21826;BME280;11075;47.944;11.776;2022-12-07T06:48:48;94546.25;;;5.99;27.66
21826;BME280;11075;47.944;11.776;2022-12-07T06:51:15;94569.41;;;7.89;25.24
21826;BME280;11075;47.944;11.776;2022-12-07T06:53:42;94568.66;;;7.80;25.42
21826;BME280;11075;47.944;11.776;2022-12-07T06:56:09;94577.13;;;8.49;24.28
21826;BME280;11075;47.944;11.776;2022-12-07T06:58:36;94587.59;;;7.11;25.56
21826;BME280;11075;47.944;11.776;2022-12-07T07:01:11;94565.38;;;6.41;27.11
21826;BME280;11075;47.944;11.776;2022-12-07T07:03:38;94572.66;;;6.67;26.37
21826;BME280;11075;47.944;11.776;2022-12-07T07:06:07;94586.78;;;7.83;24.98
21826;BME280;11075;47.944;11.776;2022-12-07T07:08:35;94559.41;;;6.79;26.74
21826;BME280;11075;47.944;11.776;2022-12-07T07:11:03;94589.28;;;7.88;25.07
21826;BME280;11075;47.944;11.776;2022-12-07T07:13:29;94594.31;;;8.28;24.68
21826;BME280;11075;47.944;11.776;2022-12-07T07:15:56;94591.38;;;6.67;26.31
21826;BME280;11075;47.944;11.776;2022-12-07T07:18:23;94590.59;;;7.73;25.29
21826;BME280;11075;47.944;11.776;2022-12-07T07:20:52;94582.50;;;7.44;25.64
21826;BME280;11075;47.944;11.776;2022-12-07T07:23:20;94583.44;;;5.70;27.20
21826;BME280;11075;47.944;11.776;2022-12-07T07:25:48;94590.09;;;7.80;25.27
21826;BME280;11075;47.944;11.776;2022-12-07T07:28:16;94604.09;;;7.94;25.09
21826;BME280;11075;47.944;11.776;2022-12-07T07:30:43;94600.19;;;7.10;25.61
21826;BME280;11075;47.944;11.776;2022-12-07T07:33:10;94609.31;;;7.90;25.13
21826;BME280;11075;47.944;11.776;2022-12-07T07:35:38;94603.63;;;7.92;25.31
21826;BME280;11075;47.944;11.776;2022-12-07T07:38:07;94606.34;;;7.83;25.52
21826;BME280;11075;47.944;11.776;2022-12-07T07:40:34;94598.00;;;6.52;26.46
21826;BME280;11075;47.944;11.776;2022-12-07T07:43:03;94601.94;;;7.79;25.14
21826;BME280;11075;47.944;11.776;2022-12-07T07:45:29;94601.75;;;7.20;25.68
21826;BME280;11075;47.944;11.776;2022-12-07T07:47:56;94574.53;;;6.66;27.03
21826;BME280;11075;47.944;11.776;2022-12-07T07:50:23;94603.63;;;8.30;24.70
21826;BME280;11075;47.944;11.776;2022-12-07T07:52:51;94607.88;;;8.31;24.76
21826;BME280;11075;47.944;11.776;2022-12-07T07:55:18;94602.59;;;7.76;25.34
21826;BME280;11075;47.944;11.776;2022-12-07T07:57:45;94592.50;;;6.83;26.71
21826;BME280;11075;47.944;11.776;2022-12-07T08:00:20;94616.09;;;7.41;25.74
21826;BME280;11075;47.944;11.776;2022-12-07T08:02:48;94620.94;;;7.56;25.37
21826;BME280;11075;47.944;11.776;2022-12-07T08:05:15;94608.38;;;7.86;25.71
21826;BME280;11075;47.944;11.776;2022-12-07T08:07:42;94613.59;;;7.27;25.99
21826;BME280;11075;47.944;11.776;2022-12-07T08:10:11;94623.22;;;7.84;25.33
21826;BME280;11075;47.944;11.776;2022-12-07T08:12:40;94617.44;;;7.73;25.57
21826;BME280;11075;47.944;11.776;2022-12-07T08:15:29;94612.47;;;7.11;26.18
21826;BME280;11075;47.944;11.776;2022-12-07T08:17:57;94588.84;;;5.87;27.98
21826;BME280;11075;47.944;11.776;2022-12-07T08:20:24;94599.91;;;6.86;26.89
21826;BME280;11075;47.944;11.776;2022-12-07T08:22:51;94609.53;;;7.77;25.41
21826;BME280;11075;47.944;11.776;2022-12-07T08:25:19;94616.53;;;7.60;25.56
21826;BME280;11075;47.944;11.776;2022-12-07T08:27:46;94614.38;;;6.85;26.61
21826;BME280;11075;47.944;11.776;2022-12-07T08:30:12;94603.19;;;6.66;26.76
21826;BME280;11075;47.944;11.776;2022-12-07T08:32:39;94612.66;;;6.72;26.58
21826;BME280;11075;47.944;11.776;2022-12-07T08:35:09;94613.06;;;7.60;25.78
21826;BME280;11075;47.944;11.776;2022-12-07T08:37:37;94623.84;;;8.28;24.97
21826;BME280;11075;47.944;11.776;2022-12-07T08:40:06;94629.72;;;8.50;24.61
21826;BME280;11075;47.944;11.776;2022-12-07T08:42:34;94611.56;;;6.73;27.09
21826;BME280;11075;47.944;11.776;2022-12-07T08:45:10;94612.63;;;7.41;26.01
21826;BME280;11075;47.944;11.776;2022-12-07T08:47:42;94616.69;;;7.55;25.88
21826;BME280;11075;47.944;11.776;2022-12-07T08:50:11;94611.56;;;6.99;26.33
21826;BME280;11075;47.944;11.776;2022-12-07T08:52:40;94614.06;;;6.86;26.99
21826;BME280;11075;47.944;11.776;2022-12-07T08:55:11;94621.84;;;7.69;25.62
21826;BME280;11075;47.944;11.776;2022-12-07T08:57:39;94603.13;;;6.31;27.67
21826;BME280;11075;47.944;11.776;2022-12-07T09:00:08;94610.44;;;7.08;26.75
21826;BME280;11075;47.944;11.776;2022-12-07T09:02:35;94588.81;;;3.95;30.38
21826;BME280;11075;47.944;11.776;2022-12-07T09:05:04;94568.06;;;4.05;30.82
21826;BME280;11075;47.944;11.776;2022-12-07T09:07:32;94592.97;;;6.59;27.81
21826;BME280;11075;47.944;11.776;2022-12-07T09:10:00;94570.94;;;4.09;30.78
21826;BME280;11075;47.944;11.776;2022-12-07T09:12:28;94554.47;;;4.43;30.92
21826;BME280;11075;47.944;11.776;2022-12-07T09:14:54;94545.28;;;3.86;31.65
21826;BME280;11075;47.944;11.776;2022-12-07T09:17:21;94546.00;;;3.78;31.28
21826;BME280;11075;47.944;11.776;2022-12-07T09:19:50;94540.56;;;4.32;30.79
21826;BME280;11075;47.944;11.776;2022-12-07T09:22:16;94566.91;;;6.33;28.05
21826;BME280;11075;47.944;11.776;2022-12-07T09:24:43;94581.00;;;6.74;27.33
21826;BME280;11075;47.944;11.776;2022-12-07T09:27:12;94549.00;;;4.62;30.58
21826;BME280;11075;47.944;11.776;2022-12-07T09:29:39;94544.47;;;3.30;31.37
21826;BME280;11075;47.944;11.776;2022-12-07T09:32:06;94553.47;;;3.62;30.44
21826;BME280;11075;47.944;11.776;2022-12-07T09:34:38;94564.47;;;5.89;28.21
21826;BME280;11075;47.944;11.776;2022-12-07T09:37:05;94571.84;;;6.92;27.07
21826;BME280;11075;47.944;11.776;2022-12-07T09:39:34;94574.47;;;7.82;26.00
21826;BME280;11075;47.944;11.776;2022-12-07T09:42:03;94560.28;;;6.14;28.39
21826;BME280;11075;47.944;11.776;2022-12-07T09:44:31;94530.19;;;3.67;31.61
21826;BME280;11075;47.944;11.776;2022-12-07T09:46:58;94521.69;;;3.52;31.48
21826;BME280;11075;47.944;11.776;2022-12-07T09:49:28;94513.56;;;4.12;31.45
21826;BME280;11075;47.944;11.776;2022-12-07T09:52:00;94535.09;;;4.01;30.85
21826;BME280;11075;47.944;11.776;2022-12-07T09:54:28;94539.44;;;4.47;29.93
21826;BME280;11075;47.944;11.776;2022-12-07T09:56:56;94550.41;;;7.01;27.01
21826;BME280;11075;47.944;11.776;2022-12-07T09:59:24;94526.22;;;3.51;31.28
21826;BME280;11075;47.944;11.776;2022-12-07T10:01:51;94526.47;;;4.99;29.49
21826;BME280;11075;47.944;11.776;2022-12-07T10:04:25;94498.00;;;3.64;32.12
21826;BME280;11075;47.944;11.776;2022-12-07T10:06:54;94533.13;;;6.72;27.85
21826;BME280;11075;47.944;11.776;2022-12-07T10:09:21;94506.22;;;4.76;30.42
21826;BME280;11075;47.944;11.776;2022-12-07T10:12:07;94513.00;;;5.35;29.70
21826;BME280;11075;47.944;11.776;2022-12-07T10:14:40;94513.41;;;6.33;28.63
21826;BME280;11075;47.944;11.776;2022-12-07T10:17:37;94496.34;;;2.48;32.67
21826;BME280;11075;47.944;11.776;2022-12-07T10:20:28;94466.03;;;2.95;33.31
21826;BME280;11075;47.944;11.776;2022-12-07T10:23:03;94509.25;;;5.84;28.63
21826;BME280;11075;47.944;11.776;2022-12-07T10:25:35;94497.88;;;4.32;30.29
21826;BME280;11075;47.944;11.776;2022-12-07T10:28:15;94530.63;;;8.58;25.63
21826;BME280;11075;47.944;11.776;2022-12-07T10:33:52;94527.91;;;6.58;27.98
21826;BME280;11075;47.944;11.776;2022-12-07T10:36:34;94514.13;;;7.12;27.65
21826;BME280;11075;47.944;11.776;2022-12-07T10:39:14;94520.28;;;6.00;28.61
21826;BME280;11075;47.944;11.776;2022-12-07T10:41:55;94529.41;;;7.28;26.92
21826;BME280;11075;47.944;11.776;2022-12-07T10:44:31;94551.34;;;8.57;25.21
21826;BME280;11075;47.944;11.776;2022-12-07T10:58:31;94543.91;;;7.27;26.20
21826;BME280;11075;47.944;11.776;2022-12-07T11:04:33;94539.47;;;8.58;25.51
21826;BME280;11075;47.944;11.776;2022-12-07T11:07:27;94557.91;;;9.79;23.94
21826;BME280;11075;47.944;11.776;2022-12-07T11:12:54;94553.56;;;7.67;25.36
21826;BME280;11075;47.944;11.776;2022-12-07T11:23:57;94515.38;;;7.32;26.67
21826;BME280;11075;47.944;11.776;2022-12-07T11:29:37;94506.50;;;7.40;26.47
21826;BME280;11075;47.944;11.776;2022-12-07T11:32:17;94517.53;;;8.35;25.64
21826;BME280;11075;47.944;11.776;2022-12-07T11:35:20;94502.19;;;7.56;26.79
21826;BME280;11075;47.944;11.776;2022-12-07T11:37:56;94493.88;;;6.76;27.42
21826;BME280;11075;47.944;11.776;2022-12-07T11:40:31;94500.41;;;7.69;26.07
21826;BME280;11075;47.944;11.776;2022-12-07T11:43:23;94492.38;;;7.31;26.63
21826;BME280;11075;47.944;11.776;2022-12-07T11:46:03;94494.28;;;8.60;25.69
21826;BME280;11075;47.944;11.776;2022-12-07T11:48:38;94490.28;;;6.63;27.61
21826;BME280;11075;47.944;11.776;2022-12-07T11:51:10;94502.91;;;8.66;25.02
21826;BME280;11075;47.944;11.776;2022-12-07T11:53:44;94489.47;;;6.37;27.13
21826;BME280;11075;47.944;11.776;2022-12-07T11:56:17;94474.66;;;4.11;29.88
21826;BME280;11075;47.944;11.776;2022-12-07T12:04:32;94469.34;;;6.48;28.11
21826;BME280;11075;47.944;11.776;2022-12-07T12:07:00;94483.75;;;8.13;25.73
21826;BME280;11075;47.944;11.776;2022-12-07T12:10:04;94468.53;;;6.05;27.79
21826;BME280;11075;47.944;11.776;2022-12-07T12:21:10;94465.91;;;6.39;27.22
21826;BME280;11075;47.944;11.776;2022-12-07T12:23:46;94440.44;;;5.11;29.43
21826;BME280;11075;47.944;11.776;2022-12-07T12:26:24;94448.47;;;4.57;28.73
21826;BME280;11075;47.944;11.776;2022-12-07T12:29:13;94460.03;;;7.36;25.97
21826;BME280;11075;47.944;11.776;2022-12-07T12:31:47;94456.88;;;6.70;26.93
21826;BME280;11075;47.944;11.776;2022-12-07T12:34:39;94457.53;;;7.60;26.76
21826;BME280;11075;47.944;11.776;2022-12-07T12:42:48;94439.91;;;6.14;27.83
21826;BME280;11075;47.944;11.776;2022-12-07T12:50:34;94464.31;;;8.91;24.49
21826;BME280;11075;47.944;11.776;2022-12-07T13:00:47;94458.16;;;8.70;25.18
21826;BME280;11075;47.944;11.776;2022-12-07T13:03:27;94458.28;;;7.40;26.17
21826;BME280;11075;47.944;11.776;2022-12-07T13:08:58;94454.66;;;7.95;25.45
21826;BME280;11075;47.944;11.776;2022-12-07T13:11:40;94449.22;;;7.06;26.44
21826;BME280;11075;47.944;11.776;2022-12-07T13:17:03;94445.56;;;7.57;26.06
21826;BME280;11075;47.944;11.776;2022-12-07T13:25:19;94456.91;;;8.34;25.32
21826;BME280;11075;47.944;11.776;2022-12-07T13:28:01;94433.09;;;6.77;27.20
21826;BME280;11075;47.944;11.776;2022-12-07T13:30:29;94462.38;;;7.96;25.48
21826;BME280;11075;47.944;11.776;2022-12-07T13:32:58;94444.84;;;6.93;26.59
21826;BME280;11075;47.944;11.776;2022-12-07T13:35:36;94453.06;;;6.88;26.38
21826;BME280;11075;47.944;11.776;2022-12-07T13:38:13;94441.94;;;6.60;26.52
21826;BME280;11075;47.944;11.776;2022-12-07T13:40:41;94442.25;;;7.60;26.35
21826;BME280;11075;47.944;11.776;2022-12-07T13:43:14;94434.94;;;7.70;26.22
21826;BME280;11075;47.944;11.776;2022-12-07T13:45:42;94434.84;;;6.64;27.09
21826;BME280;11075;47.944;11.776;2022-12-07T13:53:24;94438.88;;;8.55;25.54
21826;BME280;11075;47.944;11.776;2022-12-07T13:55:53;94441.69;;;8.92;25.03
21826;BME280;11075;47.944;11.776;2022-12-07T13:58:23;94450.06;;;8.58;24.92
21826;BME280;11075;47.944;11.776;2022-12-07T14:00:52;94427.78;;;7.53;26.91
21826;BME280;11075;47.944;11.776;2022-12-07T14:03:23;94430.13;;;6.35;27.67
21826;BME280;11075;47.944;11.776;2022-12-07T14:06:27;94425.13;;;6.08;27.80
21826;BME280;11075;47.944;11.776;2022-12-07T14:09:19;94438.50;;;8.45;25.60
21826;BME280;11075;47.944;11.776;2022-12-07T14:11:48;94447.69;;;9.46;24.00
21826;BME280;11075;47.944;11.776;2022-12-07T14:14:35;94458.50;;;9.01;24.08
21826;BME280;11075;47.944;11.776;2022-12-07T14:22:34;94451.75;;;8.83;24.69
21826;BME280;11075;47.944;11.776;2022-12-07T14:25:20;94443.38;;;6.40;27.40
21826;BME280;11075;47.944;11.776;2022-12-07T14:27:51;94443.63;;;7.67;26.00
21826;BME280;11075;47.944;11.776;2022-12-07T14:30:19;94424.00;;;5.91;28.54
21826;BME280;11075;47.944;11.776;2022-12-07T14:32:48;94424.78;;;6.26;27.67
21826;BME280;11075;47.944;11.776;2022-12-07T14:35:17;94444.09;;;8.19;25.60
21826;BME280;11075;47.944;11.776;2022-12-07T14:37:47;94431.66;;;8.68;24.83
21826;BME280;11075;47.944;11.776;2022-12-07T14:40:17;94448.97;;;8.92;24.83
21826;BME280;11075;47.944;11.776;2022-12-07T14:42:46;94420.38;;;4.60;29.54
21826;BME280;11075;47.944;11.776;2022-12-07T14:45:16;94415.22;;;6.98;27.24
21826;BME280;11075;47.944;11.776;2022-12-07T14:47:44;94433.50;;;8.55;25.07
21826;BME280;11075;47.944;11.776;2022-12-07T14:50:35;94411.78;;;7.36;26.88
21826;BME280;11075;47.944;11.776;2022-12-07T14:53:15;94426.72;;;9.03;24.83
21826;BME280;11075;47.944;11.776;2022-12-07T14:55:52;94430.19;;;8.38;25.33
21826;BME280;11075;47.944;11.776;2022-12-07T14:58:19;94445.78;;;10.48;23.39
21826;BME280;11075;47.944;11.776;2022-12-07T15:00:46;94432.56;;;8.72;24.56
21826;BME280;11075;47.944;11.776;2022-12-07T15:03:14;94439.75;;;9.50;24.26
21826;BME280;11075;47.944;11.776;2022-12-07T15:05:42;94433.34;;;8.40;24.98
21826;BME280;11075;47.944;11.776;2022-12-07T15:08:11;94429.59;;;8.53;25.15
21826;BME280;11075;47.944;11.776;2022-12-07T15:10:39;94430.03;;;8.88;24.48
21826;BME280;11075;47.944;11.776;2022-12-07T15:13:08;94423.97;;;7.54;26.44
21826;BME280;11075;47.944;11.776;2022-12-07T15:15:54;94430.00;;;8.22;25.53
21826;BME280;11075;47.944;11.776;2022-12-07T15:18:23;94422.16;;;6.99;26.78
21826;BME280;11075;47.944;11.776;2022-12-07T15:20:50;94417.56;;;8.17;25.24
21826;BME280;11075;47.944;11.776;2022-12-07T15:23:17;94424.44;;;8.06;25.30
21826;BME280;11075;47.944;11.776;2022-12-07T15:25:46;94423.22;;;8.04;25.32